sensor_id;sensor_type;location;lat;lon;timestamp;pressure;altitude;pressure_sealevel;temperature;humidity
70009;BME280;59542;37.950;-122.338;2023-04-10T00:00:47;101794.94;;;25.05;27.59
70009;BME280;59542;37.950;-122.338;2023-04-10T00:03:17;101793.91;;;24.80;28.25
70009;BME280;59542;37.950;-122.338;2023-04-10T00:05:44;101795.06;;;24.48;28.13
70009;BME280;59542;37.950;-122.338;2023-04-10T00:08:10;101784.69;;;24.25;27.51
70009;BME280;59542;37.950;-122.338;2023-04-10T00:10:36;101786.06;;;24.17;27.96
70009;BME280;59542;37.950;-122.338;2023-04-10T00:13:02;101789.88;;;23.91;27.60
70009;BME280;59542;37.950;-122.338;2023-04-10T00:15:29;101787.59;;;23.52;29.12
70009;BME280;59542;37.950;-122.338;2023-04-10T00:17:55;101783.03;;;23.73;30.27
70009;BME280;59542;37.950;-122.338;2023-04-10T00:20:22;101785.22;;;23.71;30.24
70009;BME280;59542;37.950;-122.338;2023-04-10T00:22:50;101783.88;;;23.94;28.24
70009;BME280;59542;37.950;-122.338;2023-04-10T00:25:17;101777.56;;;23.73;27.72
70009;BME280;59542;37.950;-122.338;2023-04-10T00:27:43;101775.03;;;23.56;28.41
70009;BME280;59542;37.950;-122.338;2023-04-10T00:30:09;101770.94;;;23.54;29.76
70009;BME280;59542;37.950;-122.338;2023-04-10T00:32:36;101771.50;;;23.61;28.58
70009;BME280;59542;37.950;-122.338;2023-04-10T00:35:03;101772.94;;;22.96;28.90
70009;BME280;59542;37.950;-122.338;2023-04-10T00:37:29;101776.75;;;22.89;29.66
70009;BME280;59542;37.950;-122.338;2023-04-10T00:39:56;101769.13;;;23.02;29.83
70009;BME280;59542;37.950;-122.338;2023-04-10T00:42:22;101764.03;;;22.68;30.76
70009;BME280;59542;37.950;-122.338;2023-04-10T00:44:48;101761.31;;;22.68;30.33
70009;BME280;59542;37.950;-122.338;2023-04-10T00:47:15;101754.00;;;22.79;29.92
70009;BME280;59542;37.950;-122.338;2023-04-10T00:49:41;101768.22;;;22.86;30.28
70009;BME280;59542;37.950;-122.338;2023-04-10T00:52:08;101761.84;;;22.70;30.39
70009;BME280;59542;37.950;-122.338;2023-04-10T00:54:35;101758.41;;;22.43;33.58
70009;BME280;59542;37.950;-122.338;2023-04-10T00:57:02;101760.19;;;22.22;36.32
70009;BME280;59542;37.950;-122.338;2023-04-10T00:59:30;101769.03;;;22.07;36.66
70009;BME280;59542;37.950;-122.338;2023-04-10T01:01:57;101770.00;;;21.91;37.50
70009;BME280;59542;37.950;-122.338;2023-04-10T01:04:24;101765.72;;;22.00;38.05
70009;BME280;59542;37.950;-122.338;2023-04-10T01:09:37;101767.22;;;21.58;37.11
70009;BME280;59542;37.950;-122.338;2023-04-10T01:15:07;101766.25;;;20.77;39.77
70009;BME280;59542;37.950;-122.338;2023-04-10T01:18:08;101763.47;;;20.72;39.17
70009;BME280;59542;37.950;-122.338;2023-04-10T01:20:37;101755.38;;;20.99;39.81
70009;BME280;59542;37.950;-122.338;2023-04-10T01:25:49;101751.06;;;20.81;40.24
70009;BME280;59542;37.950;-122.338;2023-04-10T01:31:18;101754.72;;;20.70;39.90
70009;BME280;59542;37.950;-122.338;2023-04-10T01:33:47;101747.94;;;20.34;40.33
70009;BME280;59542;37.950;-122.338;2023-04-10T01:36:23;101743.31;;;20.34;39.79
70009;BME280;59542;37.950;-122.338;2023-04-10T01:38:52;101742.56;;;20.55;39.25
70009;BME280;59542;37.950;-122.338;2023-04-10T01:41:20;101740.59;;;20.51;38.09
70009;BME280;59542;37.950;-122.338;2023-04-10T01:43:48;101746.66;;;20.41;38.33
70009;BME280;59542;37.950;-122.338;2023-04-10T01:46:18;101741.16;;;20.36;38.13
70009;BME280;59542;37.950;-122.338;2023-04-10T01:48:46;101741.75;;;20.21;37.76
70009;BME280;59542;37.950;-122.338;2023-04-10T01:51:14;101735.56;;;20.26;38.17
70009;BME280;59542;37.950;-122.338;2023-04-10T01:53:42;101736.94;;;20.45;38.80
70009;BME280;59542;37.950;-122.338;2023-04-10T01:56:12;101732.19;;;20.36;39.57
70009;BME280;59542;37.950;-122.338;2023-04-10T01:58:39;101735.00;;;20.24;40.09
70009;BME280;59542;37.950;-122.338;2023-04-10T02:01:05;101730.72;;;20.11;40.52
70009;BME280;59542;37.950;-122.338;2023-04-10T02:03:32;101733.41;;;20.45;41.38
70009;BME280;59542;37.950;-122.338;2023-04-10T02:06:22;101734.66;;;20.20;42.30
70009;BME280;59542;37.950;-122.338;2023-04-10T02:08:58;101734.84;;;20.14;42.86
70009;BME280;59542;37.950;-122.338;2023-04-10T02:14:15;101741.81;;;20.10;42.94
70009;BME280;59542;37.950;-122.338;2023-04-10T02:16:43;101727.66;;;20.24;43.84
70009;BME280;59542;37.950;-122.338;2023-04-10T02:19:12;101725.69;;;20.20;45.19
70009;BME280;59542;37.950;-122.338;2023-04-10T02:21:40;101728.00;;;20.11;45.82
70009;BME280;59542;37.950;-122.338;2023-04-10T02:24:07;101719.84;;;20.28;46.32
70009;BME280;59542;37.950;-122.338;2023-04-10T02:26:46;101719.69;;;20.01;46.95
70009;BME280;59542;37.950;-122.338;2023-04-10T02:29:13;101719.69;;;19.84;47.31
70009;BME280;59542;37.950;-122.338;2023-04-10T02:31:40;101727.81;;;19.67;47.59
70009;BME280;59542;37.950;-122.338;2023-04-10T02:34:07;101722.97;;;19.86;47.12
70009;BME280;59542;37.950;-122.338;2023-04-10T02:36:35;101724.13;;;19.90;47.43
70009;BME280;59542;37.950;-122.338;2023-04-10T02:39:01;101726.94;;;19.95;47.52
70009;BME280;59542;37.950;-122.338;2023-04-10T02:41:28;101721.34;;;19.57;48.51
70009;BME280;59542;37.950;-122.338;2023-04-10T02:43:54;101719.19;;;19.42;48.73
70009;BME280;59542;37.950;-122.338;2023-04-10T02:46:21;101714.56;;;19.42;48.30
70009;BME280;59542;37.950;-122.338;2023-04-10T02:48:47;101722.44;;;18.87;46.78
70009;BME280;59542;37.950;-122.338;2023-04-10T02:51:13;101730.38;;;18.53;44.14
70009;BME280;59542;37.950;-122.338;2023-04-10T02:53:40;101720.25;;;18.60;42.80
70009;BME280;59542;37.950;-122.338;2023-04-10T02:56:06;101727.66;;;18.41;41.85
70009;BME280;59542;37.950;-122.338;2023-04-10T02:58:33;101735.44;;;18.26;42.23
70009;BME280;59542;37.950;-122.338;2023-04-10T03:01:00;101739.88;;;17.85;42.54
70009;BME280;59542;37.950;-122.338;2023-04-10T03:03:26;101734.09;;;17.82;42.27
70009;BME280;59542;37.950;-122.338;2023-04-10T03:05:53;101738.94;;;17.50;44.01
70009;BME280;59542;37.950;-122.338;2023-04-10T03:08:19;101740.63;;;17.62;43.35
70009;BME280;59542;37.950;-122.338;2023-04-10T03:10:46;101738.78;;;17.75;42.81
70009;BME280;59542;37.950;-122.338;2023-04-10T03:13:16;101740.72;;;17.56;42.60
70009;BME280;59542;37.950;-122.338;2023-04-10T03:15:42;101742.34;;;17.45;43.40
70009;BME280;59542;37.950;-122.338;2023-04-10T03:18:09;101746.09;;;17.44;42.70
70009;BME280;59542;37.950;-122.338;2023-04-10T03:20:36;101732.81;;;17.24;43.77
70009;BME280;59542;37.950;-122.338;2023-04-10T03:23:04;101740.25;;;17.29;43.03
70009;BME280;59542;37.950;-122.338;2023-04-10T03:25:34;101750.78;;;17.19;44.31
70009;BME280;59542;37.950;-122.338;2023-04-10T03:28:01;101744.03;;;17.09;44.79
70009;BME280;59542;37.950;-122.338;2023-04-10T03:30:27;101740.88;;;17.12;45.40
70009;BME280;59542;37.950;-122.338;2023-04-10T03:32:54;101745.53;;;17.24;45.54
70009;BME280;59542;37.950;-122.338;2023-04-10T03:35:20;101752.97;;;17.28;45.59
70009;BME280;59542;37.950;-122.338;2023-04-10T03:37:47;101741.94;;;16.93;46.59
70009;BME280;59542;37.950;-122.338;2023-04-10T03:40:13;101746.09;;;16.96;46.57
70009;BME280;59542;37.950;-122.338;2023-04-10T03:42:39;101742.09;;;17.17;46.18
70009;BME280;59542;37.950;-122.338;2023-04-10T03:45:06;101745.72;;;17.10;46.84
70009;BME280;59542;37.950;-122.338;2023-04-10T03:47:33;101752.38;;;17.08;47.21
70009;BME280;59542;37.950;-122.338;2023-04-10T03:50:00;101743.97;;;16.98;47.80
70009;BME280;59542;37.950;-122.338;2023-04-10T03:52:26;101747.44;;;17.05;47.98
70009;BME280;59542;37.950;-122.338;2023-04-10T03:54:53;101756.44;;;16.99;48.31
70009;BME280;59542;37.950;-122.338;2023-04-10T03:57:20;101752.47;;;17.01;48.45
70009;BME280;59542;37.950;-122.338;2023-04-10T03:59:46;101754.94;;;17.03;48.47
70009;BME280;59542;37.950;-122.338;2023-04-10T04:02:13;101756.44;;;16.80;49.23
70009;BME280;59542;37.950;-122.338;2023-04-10T04:04:39;101752.53;;;16.76;50.55
70009;BME280;59542;37.950;-122.338;2023-04-10T04:07:06;101758.13;;;17.00;49.88
70009;BME280;59542;37.950;-122.338;2023-04-10T04:09:32;101763.16;;;16.78;50.51
70009;BME280;59542;37.950;-122.338;2023-04-10T04:11:58;101758.09;;;16.81;50.96
70009;BME280;59542;37.950;-122.338;2023-04-10T04:14:24;101760.59;;;16.58;51.96
70009;BME280;59542;37.950;-122.338;2023-04-10T04:16:51;101765.19;;;16.57;52.28
70009;BME280;59542;37.950;-122.338;2023-04-10T04:19:17;101766.75;;;16.65;51.78
70009;BME280;59542;37.950;-122.338;2023-04-10T04:21:43;101767.56;;;16.47;52.37
70009;BME280;59542;37.950;-122.338;2023-04-10T04:24:10;101770.78;;;16.37;52.91
70009;BME280;59542;37.950;-122.338;2023-04-10T04:26:36;101772.22;;;16.40;53.00
70009;BME280;59542;37.950;-122.338;2023-04-10T04:29:02;101777.78;;;16.20;53.75
70009;BME280;59542;37.950;-122.338;2023-04-10T04:31:28;101768.38;;;16.29;53.63
70009;BME280;59542;37.950;-122.338;2023-04-10T04:33:58;101764.25;;;16.27;54.16
70009;BME280;59542;37.950;-122.338;2023-04-10T04:36:24;101765.91;;;16.46;53.49
70009;BME280;59542;37.950;-122.338;2023-04-10T04:38:51;101771.72;;;16.25;53.83
70009;BME280;59542;37.950;-122.338;2023-04-10T04:41:17;101767.53;;;16.29;54.92
70009;BME280;59542;37.950;-122.338;2023-04-10T04:43:43;101773.75;;;16.29;54.32
70009;BME280;59542;37.950;-122.338;2023-04-10T04:46:12;101765.09;;;16.21;54.62
70009;BME280;59542;37.950;-122.338;2023-04-10T04:48:38;101768.34;;;16.04;55.42
70009;BME280;59542;37.950;-122.338;2023-04-10T04:51:07;101754.00;;;16.04;55.92
70009;BME280;59542;37.950;-122.338;2023-04-10T04:53:34;101755.28;;;16.01;56.04
70009;BME280;59542;37.950;-122.338;2023-04-10T04:56:00;101766.97;;;15.95;56.25
70009;BME280;59542;37.950;-122.338;2023-04-10T04:58:27;101766.47;;;15.80;56.66
70009;BME280;59542;37.950;-122.338;2023-04-10T05:00:53;101757.81;;;15.65;57.00
70009;BME280;59542;37.950;-122.338;2023-04-10T05:03:19;101762.47;;;15.89;55.66
70009;BME280;59542;37.950;-122.338;2023-04-10T05:05:46;101761.38;;;15.58;57.06
70009;BME280;59542;37.950;-122.338;2023-04-10T05:08:12;101761.63;;;15.50;57.00
70009;BME280;59542;37.950;-122.338;2023-04-10T05:10:38;101762.47;;;15.51;56.77
70009;BME280;59542;37.950;-122.338;2023-04-10T05:13:05;101760.13;;;15.54;56.60
70009;BME280;59542;37.950;-122.338;2023-04-10T05:15:31;101769.22;;;15.73;56.51
70009;BME280;59542;37.950;-122.338;2023-04-10T05:17:57;101768.84;;;15.56;56.80
70009;BME280;59542;37.950;-122.338;2023-04-10T05:20:23;101768.06;;;15.49;56.82
70009;BME280;59542;37.950;-122.338;2023-04-10T05:22:50;101768.50;;;15.46;57.05
70009;BME280;59542;37.950;-122.338;2023-04-10T05:25:18;101770.00;;;15.36;57.31
70009;BME280;59542;37.950;-122.338;2023-04-10T05:27:44;101771.09;;;15.28;57.37
70009;BME280;59542;37.950;-122.338;2023-04-10T05:30:11;101762.28;;;15.46;57.42
70009;BME280;59542;37.950;-122.338;2023-04-10T05:32:37;101765.13;;;15.57;57.43
70009;BME280;59542;37.950;-122.338;2023-04-10T05:35:03;101762.00;;;15.54;57.02
70009;BME280;59542;37.950;-122.338;2023-04-10T05:37:30;101773.06;;;15.46;57.09
70009;BME280;59542;37.950;-122.338;2023-04-10T05:39:56;101768.50;;;15.46;56.95
70009;BME280;59542;37.950;-122.338;2023-04-10T05:42:22;101768.69;;;15.07;58.11
70009;BME280;59542;37.950;-122.338;2023-04-10T05:44:49;101766.84;;;15.00;58.61
70009;BME280;59542;37.950;-122.338;2023-04-10T05:47:15;101772.84;;;14.96;58.73
70009;BME280;59542;37.950;-122.338;2023-04-10T05:49:41;101770.59;;;14.86;58.84
70009;BME280;59542;37.950;-122.338;2023-04-10T05:52:08;101772.06;;;14.82;59.02
70009;BME280;59542;37.950;-122.338;2023-04-10T05:54:34;101767.75;;;14.68;59.08
70009;BME280;59542;37.950;-122.338;2023-04-10T05:57:01;101769.22;;;14.50;60.18
70009;BME280;59542;37.950;-122.338;2023-04-10T05:59:27;101764.25;;;14.47;60.00
70009;BME280;59542;37.950;-122.338;2023-04-10T06:01:53;101768.34;;;14.83;59.38
70009;BME280;59542;37.950;-122.338;2023-04-10T06:04:19;101766.75;;;14.56;60.08
70009;BME280;59542;37.950;-122.338;2023-04-10T06:06:48;101767.34;;;14.44;60.45
70009;BME280;59542;37.950;-122.338;2023-04-10T06:09:15;101761.09;;;14.84;59.95
70009;BME280;59542;37.950;-122.338;2023-04-10T06:11:41;101757.56;;;14.76;59.62
70009;BME280;59542;37.950;-122.338;2023-04-10T06:14:07;101754.22;;;14.81;59.49
70009;BME280;59542;37.950;-122.338;2023-04-10T06:16:33;101752.41;;;14.68;59.78
70009;BME280;59542;37.950;-122.338;2023-04-10T06:19:00;101761.75;;;14.39;60.86
70009;BME280;59542;37.950;-122.338;2023-04-10T06:21:26;101759.03;;;14.46;60.46
70009;BME280;59542;37.950;-122.338;2023-04-10T06:23:52;101753.03;;;14.04;61.99
70009;BME280;59542;37.950;-122.338;2023-04-10T06:26:18;101747.88;;;13.96;62.44
70009;BME280;59542;37.950;-122.338;2023-04-10T06:28:45;101748.66;;;13.70;63.49
70009;BME280;59542;37.950;-122.338;2023-04-10T06:31:11;101752.38;;;13.56;64.14
70009;BME280;59542;37.950;-122.338;2023-04-10T06:33:37;101747.31;;;13.26;65.73
70009;BME280;59542;37.950;-122.338;2023-04-10T06:36:04;101750.81;;;13.27;65.31
70009;BME280;59542;37.950;-122.338;2023-04-10T06:38:31;101745.88;;;13.30;65.58
70009;BME280;59542;37.950;-122.338;2023-04-10T06:41:03;101747.84;;;13.69;64.51
70009;BME280;59542;37.950;-122.338;2023-04-10T06:43:35;101747.63;;;13.64;64.29
70009;BME280;59542;37.950;-122.338;2023-04-10T06:46:03;101746.78;;;13.57;64.67
70009;BME280;59542;37.950;-122.338;2023-04-10T06:48:31;101738.28;;;13.54;64.65
70009;BME280;59542;37.950;-122.338;2023-04-10T06:50:57;101741.63;;;13.76;64.14
70009;BME280;59542;37.950;-122.338;2023-04-10T06:53:26;101742.72;;;13.94;63.29
70009;BME280;59542;37.950;-122.338;2023-04-10T06:55:52;101741.66;;;13.95;63.03
70009;BME280;59542;37.950;-122.338;2023-04-10T06:58:18;101740.59;;;13.63;63.93
70009;BME280;59542;37.950;-122.338;2023-04-10T07:00:45;101742.59;;;13.35;65.23
70009;BME280;59542;37.950;-122.338;2023-04-10T07:03:11;101736.69;;;13.11;66.02
70009;BME280;59542;37.950;-122.338;2023-04-10T07:05:38;101738.00;;;13.22;65.81
70009;BME280;59542;37.950;-122.338;2023-04-10T07:08:04;101735.28;;;12.81;67.39
70009;BME280;59542;37.950;-122.338;2023-04-10T07:10:30;101740.31;;;12.90;67.26
70009;BME280;59542;37.950;-122.338;2023-04-10T07:12:56;101743.94;;;13.11;66.84
70009;BME280;59542;37.950;-122.338;2023-04-10T07:15:23;101749.91;;;13.06;67.11
70009;BME280;59542;37.950;-122.338;2023-04-10T07:17:50;101749.91;;;13.13;67.07
70009;BME280;59542;37.950;-122.338;2023-04-10T07:20:17;101739.66;;;13.23;66.73
70009;BME280;59542;37.950;-122.338;2023-04-10T07:22:43;101744.03;;;13.37;66.34
70009;BME280;59542;37.950;-122.338;2023-04-10T07:25:10;101741.41;;;13.51;65.86
70009;BME280;59542;37.950;-122.338;2023-04-10T07:27:36;101740.50;;;13.30;66.34
70009;BME280;59542;37.950;-122.338;2023-04-10T07:30:02;101749.81;;;12.93;67.98
70009;BME280;59542;37.950;-122.338;2023-04-10T07:32:29;101741.16;;;12.98;67.57
70009;BME280;59542;37.950;-122.338;2023-04-10T07:34:55;101731.72;;;13.15;67.25
70009;BME280;59542;37.950;-122.338;2023-04-10T07:37:21;101728.16;;;12.94;67.56
70009;BME280;59542;37.950;-122.338;2023-04-10T07:39:47;101736.47;;;13.06;66.67
70009;BME280;59542;37.950;-122.338;2023-04-10T07:42:14;101741.03;;;12.71;68.04
70009;BME280;59542;37.950;-122.338;2023-04-10T07:44:40;101731.41;;;12.83;67.44
70009;BME280;59542;37.950;-122.338;2023-04-10T07:47:06;101730.66;;;12.61;67.78
70009;BME280;59542;37.950;-122.338;2023-04-10T07:49:32;101734.88;;;11.93;70.28
70009;BME280;59542;37.950;-122.338;2023-04-10T07:51:59;101730.19;;;12.23;69.35
70009;BME280;59542;37.950;-122.338;2023-04-10T07:54:25;101731.38;;;12.49;68.40
70009;BME280;59542;37.950;-122.338;2023-04-10T07:56:52;101725.25;;;12.55;67.96
70009;BME280;59542;37.950;-122.338;2023-04-10T07:59:18;101721.13;;;12.59;67.57
70009;BME280;59542;37.950;-122.338;2023-04-10T08:01:44;101717.66;;;12.65;67.12
70009;BME280;59542;37.950;-122.338;2023-04-10T08:04:10;101720.16;;;12.66;66.94
70009;BME280;59542;37.950;-122.338;2023-04-10T08:06:37;101720.19;;;12.73;66.35
70009;BME280;59542;37.950;-122.338;2023-04-10T08:09:03;101717.09;;;12.76;66.64
70009;BME280;59542;37.950;-122.338;2023-04-10T08:11:33;101712.47;;;13.05;65.38
70009;BME280;59542;37.950;-122.338;2023-04-10T08:14:01;101708.66;;;12.86;66.01
70009;BME280;59542;37.950;-122.338;2023-04-10T08:16:33;101709.41;;;12.66;67.03
70009;BME280;59542;37.950;-122.338;2023-04-10T08:19:00;101705.00;;;12.59;67.53
70009;BME280;59542;37.950;-122.338;2023-04-10T08:21:28;101699.06;;;12.70;66.67
70009;BME280;59542;37.950;-122.338;2023-04-10T08:23:56;101697.22;;;12.71;66.56
70009;BME280;59542;37.950;-122.338;2023-04-10T08:26:25;101696.00;;;12.73;66.55
70009;BME280;59542;37.950;-122.338;2023-04-10T08:28:52;101692.66;;;12.71;66.66
70009;BME280;59542;37.950;-122.338;2023-04-10T08:31:20;101691.09;;;12.83;66.40
70009;BME280;59542;37.950;-122.338;2023-04-10T08:33:47;101689.78;;;12.66;67.31
70009;BME280;59542;37.950;-122.338;2023-04-10T08:36:14;101692.63;;;12.58;67.67
70009;BME280;59542;37.950;-122.338;2023-04-10T08:38:42;101689.81;;;12.10;69.65
70009;BME280;59542;37.950;-122.338;2023-04-10T08:41:13;101700.97;;;11.64;72.10
70009;BME280;59542;37.950;-122.338;2023-04-10T08:43:39;101700.53;;;11.60;71.88
70009;BME280;59542;37.950;-122.338;2023-04-10T08:46:06;101694.06;;;11.76;71.37
70009;BME280;59542;37.950;-122.338;2023-04-10T08:48:51;101690.81;;;12.02;70.15
70009;BME280;59542;37.950;-122.338;2023-04-10T08:51:19;101691.09;;;12.14;69.60
70009;BME280;59542;37.950;-122.338;2023-04-10T08:53:50;101688.63;;;12.12;69.44
70009;BME280;59542;37.950;-122.338;2023-04-10T08:56:17;101681.63;;;12.18;69.48
70009;BME280;59542;37.950;-122.338;2023-04-10T08:58:44;101683.28;;;12.19;69.00
70009;BME280;59542;37.950;-122.338;2023-04-10T09:01:10;101679.97;;;12.17;69.08
70009;BME280;59542;37.950;-122.338;2023-04-10T09:03:37;101684.53;;;12.17;68.85
70009;BME280;59542;37.950;-122.338;2023-04-10T09:06:04;101684.53;;;12.17;68.73
70009;BME280;59542;37.950;-122.338;2023-04-10T09:08:31;101690.19;;;12.28;68.28
70009;BME280;59542;37.950;-122.338;2023-04-10T09:10:57;101686.78;;;12.20;68.35
70009;BME280;59542;37.950;-122.338;2023-04-10T09:13:43;101688.31;;;12.29;68.35
70009;BME280;59542;37.950;-122.338;2023-04-10T09:16:10;101684.94;;;12.20;68.36
70009;BME280;59542;37.950;-122.338;2023-04-10T09:18:47;101683.03;;;12.14;68.34
70009;BME280;59542;37.950;-122.338;2023-04-10T09:21:18;101690.69;;;12.10;68.59
70009;BME280;59542;37.950;-122.338;2023-04-10T09:23:46;101684.44;;;12.10;68.60
70009;BME280;59542;37.950;-122.338;2023-04-10T09:29:09;101677.38;;;12.02;68.85
70009;BME280;59542;37.950;-122.338;2023-04-10T09:31:37;101668.63;;;11.94;69.44
70009;BME280;59542;37.950;-122.338;2023-04-10T09:34:19;101667.19;;;11.91;69.35
70009;BME280;59542;37.950;-122.338;2023-04-10T09:36:57;101667.75;;;11.65;70.98
70009;BME280;59542;37.950;-122.338;2023-04-10T09:39:34;101665.97;;;11.29;72.79
70009;BME280;59542;37.950;-122.338;2023-04-10T09:42:01;101669.28;;;11.31;72.84
70009;BME280;59542;37.950;-122.338;2023-04-10T09:44:34;101664.59;;;11.55;71.91
70009;BME280;59542;37.950;-122.338;2023-04-10T09:49:49;101660.38;;;11.67;70.95
70009;BME280;59542;37.950;-122.338;2023-04-10T09:52:30;101662.59;;;11.63;71.08
70009;BME280;59542;37.950;-122.338;2023-04-10T09:55:01;101653.88;;;11.55;71.62
70009;BME280;59542;37.950;-122.338;2023-04-10T09:57:30;101651.50;;;11.45;72.15
70009;BME280;59542;37.950;-122.338;2023-04-10T10:00:02;101647.28;;;11.57;71.77
70009;BME280;59542;37.950;-122.338;2023-04-10T10:02:35;101640.63;;;11.53;71.83
70009;BME280;59542;37.950;-122.338;2023-04-10T10:05:04;101651.19;;;11.55;71.87
70009;BME280;59542;37.950;-122.338;2023-04-10T10:07:30;101645.44;;;11.58;71.74
70009;BME280;59542;37.950;-122.338;2023-04-10T10:09:57;101629.97;;;11.60;71.47
70009;BME280;59542;37.950;-122.338;2023-04-10T10:17:46;101640.25;;;11.56;71.01
70009;BME280;59542;37.950;-122.338;2023-04-10T10:20:17;101631.16;;;11.51;70.94
70009;BME280;59542;37.950;-122.338;2023-04-10T10:22:45;101620.22;;;11.52;70.77
70009;BME280;59542;37.950;-122.338;2023-04-10T10:25:12;101625.56;;;11.52;70.76
70009;BME280;59542;37.950;-122.338;2023-04-10T10:27:39;101627.63;;;11.50;70.92
70009;BME280;59542;37.950;-122.338;2023-04-10T10:30:08;101622.38;;;11.63;70.81
70009;BME280;59542;37.950;-122.338;2023-04-10T10:32:37;101629.75;;;11.55;70.86
70009;BME280;59542;37.950;-122.338;2023-04-10T10:35:05;101624.13;;;11.50;71.16
70009;BME280;59542;37.950;-122.338;2023-04-10T10:37:35;101626.34;;;11.46;71.08
70009;BME280;59542;37.950;-122.338;2023-04-10T10:43:00;101618.44;;;11.38;71.35
70009;BME280;59542;37.950;-122.338;2023-04-10T10:45:35;101620.72;;;11.41;71.42
70009;BME280;59542;37.950;-122.338;2023-04-10T10:48:03;101622.84;;;11.46;71.47
70009;BME280;59542;37.950;-122.338;2023-04-10T10:51:08;101625.59;;;11.80;71.93
70009;BME280;59542;37.950;-122.338;2023-04-10T10:53:43;101619.91;;;11.62;72.10
70009;BME280;59542;37.950;-122.338;2023-04-10T10:56:32;101623.09;;;11.51;72.49
70009;BME280;59542;37.950;-122.338;2023-04-10T10:58:59;101627.69;;;11.35;73.57
70009;BME280;59542;37.950;-122.338;2023-04-10T11:01:26;101625.06;;;11.63;73.13
70009;BME280;59542;37.950;-122.338;2023-04-10T11:03:53;101618.88;;;11.63;73.22
70009;BME280;59542;37.950;-122.338;2023-04-10T11:06:21;101620.78;;;11.48;73.64
70009;BME280;59542;37.950;-122.338;2023-04-10T11:08:48;101626.41;;;11.31;74.07
70009;BME280;59542;37.950;-122.338;2023-04-10T11:11:26;101625.25;;;11.19;74.44
70009;BME280;59542;37.950;-122.338;2023-04-10T11:16:42;101617.63;;;11.16;74.14
70009;BME280;59542;37.950;-122.338;2023-04-10T11:19:10;101606.50;;;11.19;74.47
70009;BME280;59542;37.950;-122.338;2023-04-10T11:22:14;101609.38;;;11.18;75.10
70009;BME280;59542;37.950;-122.338;2023-04-10T11:24:51;101611.25;;;11.17;75.65
70009;BME280;59542;37.950;-122.338;2023-04-10T11:27:40;101614.03;;;11.52;74.74
70009;BME280;59542;37.950;-122.338;2023-04-10T11:30:29;101610.97;;;11.33;75.67
70009;BME280;59542;37.950;-122.338;2023-04-10T11:32:56;101607.72;;;11.17;76.35
70009;BME280;59542;37.950;-122.338;2023-04-10T11:35:23;101605.09;;;11.02;77.06
70009;BME280;59542;37.950;-122.338;2023-04-10T11:37:50;101610.47;;;11.02;77.71
70009;BME280;59542;37.950;-122.338;2023-04-10T11:40:17;101616.25;;;10.69;78.83
70009;BME280;59542;37.950;-122.338;2023-04-10T11:42:43;101615.81;;;10.66;79.66
70009;BME280;59542;37.950;-122.338;2023-04-10T11:45:26;101619.13;;;10.68;80.39
70009;BME280;59542;37.950;-122.338;2023-04-10T11:47:53;101611.53;;;10.71;80.68
70009;BME280;59542;37.950;-122.338;2023-04-10T11:50:20;101613.72;;;10.61;80.67
70009;BME280;59542;37.950;-122.338;2023-04-10T11:52:49;101613.25;;;10.57;81.05
70009;BME280;59542;37.950;-122.338;2023-04-10T11:55:16;101613.59;;;10.69;81.48
70009;BME280;59542;37.950;-122.338;2023-04-10T11:57:44;101602.59;;;10.79;81.52
70009;BME280;59542;37.950;-122.338;2023-04-10T12:00:10;101606.03;;;10.58;82.73
70009;BME280;59542;37.950;-122.338;2023-04-10T12:02:50;101601.06;;;10.55;83.25
70009;BME280;59542;37.950;-122.338;2023-04-10T12:05:20;101593.41;;;10.88;83.25
70009;BME280;59542;37.950;-122.338;2023-04-10T12:07:48;101599.97;;;10.86;83.37
70009;BME280;59542;37.950;-122.338;2023-04-10T12:10:15;101598.53;;;10.83;83.80
70009;BME280;59542;37.950;-122.338;2023-04-10T12:12:41;101597.25;;;11.00;83.16
70009;BME280;59542;37.950;-122.338;2023-04-10T12:15:27;101600.47;;;11.10;82.75
70009;BME280;59542;37.950;-122.338;2023-04-10T12:17:54;101596.03;;;11.03;83.00
70009;BME280;59542;37.950;-122.338;2023-04-10T12:20:21;101599.84;;;10.94;83.22
70009;BME280;59542;37.950;-122.338;2023-04-10T12:22:52;101596.47;;;10.85;83.41
70009;BME280;59542;37.950;-122.338;2023-04-10T12:25:20;101594.97;;;10.82;83.25
70009;BME280;59542;37.950;-122.338;2023-04-10T12:27:48;101594.69;;;10.92;82.37
70009;BME280;59542;37.950;-122.338;2023-04-10T12:30:16;101596.28;;;10.87;82.37
70009;BME280;59542;37.950;-122.338;2023-04-10T12:32:50;101591.94;;;10.86;82.29
70009;BME280;59542;37.950;-122.338;2023-04-10T12:35:17;101589.53;;;10.91;81.13
70009;BME280;59542;37.950;-122.338;2023-04-10T12:40:14;101588.53;;;10.77;81.84
70009;BME280;59542;37.950;-122.338;2023-04-10T12:42:40;101582.53;;;10.90;82.70
70009;BME280;59542;37.950;-122.338;2023-04-10T12:45:07;101572.44;;;10.92;82.80
70009;BME280;59542;37.950;-122.338;2023-04-10T12:47:49;101573.31;;;10.99;83.84
70009;BME280;59542;37.950;-122.338;2023-04-10T12:50:18;101572.50;;;10.98;84.06
70009;BME280;59542;37.950;-122.338;2023-04-10T12:53:03;101566.19;;;11.06;84.10
70009;BME280;59542;37.950;-122.338;2023-04-10T12:55:32;101569.56;;;10.93;83.99
70009;BME280;59542;37.950;-122.338;2023-04-10T12:58:17;101568.81;;;10.99;83.43
70009;BME280;59542;37.950;-122.338;2023-04-10T13:00:47;101569.66;;;11.00;82.86